sensor_id;sensor_type;location;lat;lon;timestamp;pressure;altitude;pressure_sealevel;temperature;humidity
77118;BME280;66072;50.238;19.228;2024-02-26T00:00:39;97569.49;;;0.33;94.85
77118;BME280;66072;50.238;19.228;2024-02-26T00:03:27;97571.89;;;0.31;95.11
77118;BME280;66072;50.238;19.228;2024-02-26T00:05:55;97569.87;;;0.30;95.70
77118;BME280;66072;50.238;19.228;2024-02-26T00:08:23;97568.18;;;0.31;96.04
77118;BME280;66072;50.238;19.228;2024-02-26T00:10:51;97564.33;;;0.31;95.91
77118;BME280;66072;50.238;19.228;2024-02-26T00:13:19;97566.36;;;0.29;95.77
77118;BME280;66072;50.238;19.228;2024-02-26T00:15:46;97563.08;;;0.26;95.89
77118;BME280;66072;50.238;19.228;2024-02-26T00:18:14;97564.00;;;0.21;95.59
77118;BME280;66072;50.238;19.228;2024-02-26T00:20:42;97564.10;;;0.17;95.33
77118;BME280;66072;50.238;19.228;2024-02-26T00:23:10;97559.67;;;0.11;95.30
77118;BME280;66072;50.238;19.228;2024-02-26T00:25:37;97559.41;;;0.07;95.60
77118;BME280;66072;50.238;19.228;2024-02-26T00:28:05;97558.95;;;0.05;95.93
77118;BME280;66072;50.238;19.228;2024-02-26T00:30:33;97553.98;;;0.01;96.03
77118;BME280;66072;50.238;19.228;2024-02-26T00:33:01;97553.22;;;-0.03;96.06
77118;BME280;66072;50.238;19.228;2024-02-26T00:35:29;97555.14;;;-0.06;96.23
77118;BME280;66072;50.238;19.228;2024-02-26T00:37:57;97558.04;;;-0.09;96.29
77118;BME280;66072;50.238;19.228;2024-02-26T00:40:24;97567.69;;;-0.12;96.31
77118;BME280;66072;50.238;19.228;2024-02-26T00:42:52;97565.33;;;-0.13;97.95
77118;BME280;66072;50.238;19.228;2024-02-26T00:45:20;97571.33;;;-0.10;98.61
77118;BME280;66072;50.238;19.228;2024-02-26T00:47:48;97568.80;;;-0.10;98.84
77118;BME280;66072;50.238;19.228;2024-02-26T00:50:15;97566.63;;;-0.10;98.58
77118;BME280;66072;50.238;19.228;2024-02-26T00:52:43;97569.43;;;-0.08;98.54
77118;BME280;66072;50.238;19.228;2024-02-26T00:55:11;97570.14;;;-0.10;98.33
77118;BME280;66072;50.238;19.228;2024-02-26T00:57:39;97565.15;;;-0.11;98.10
77118;BME280;66072;50.238;19.228;2024-02-26T01:00:07;97567.68;;;-0.13;97.89
77118;BME280;66072;50.238;19.228;2024-02-26T01:02:35;97568.55;;;-0.15;97.74
77118;BME280;66072;50.238;19.228;2024-02-26T01:05:03;97566.90;;;-0.15;97.87
77118;BME280;66072;50.238;19.228;2024-02-26T01:07:31;97568.27;;;-0.16;97.71
77118;BME280;66072;50.238;19.228;2024-02-26T01:09:59;97571.14;;;-0.17;97.68
77118;BME280;66072;50.238;19.228;2024-02-26T01:12:27;97570.14;;;-0.18;97.66
77118;BME280;66072;50.238;19.228;2024-02-26T01:14:54;97568.41;;;-0.16;97.91
77118;BME280;66072;50.238;19.228;2024-02-26T01:17:23;97571.73;;;-0.14;98.05
77118;BME280;66072;50.238;19.228;2024-02-26T01:19:51;97568.20;;;-0.14;97.88
77118;BME280;66072;50.238;19.228;2024-02-26T01:22:19;97563.52;;;-0.15;97.62
77118;BME280;66072;50.238;19.228;2024-02-26T01:24:46;97559.16;;;-0.15;97.79
77118;BME280;66072;50.238;19.228;2024-02-26T01:27:14;97561.67;;;-0.15;97.89
77118;BME280;66072;50.238;19.228;2024-02-26T01:29:42;97557.02;;;-0.17;97.66
77118;BME280;66072;50.238;19.228;2024-02-26T01:32:10;97559.39;;;-0.18;97.57
77118;BME280;66072;50.238;19.228;2024-02-26T01:34:38;97556.21;;;-0.20;97.75
77118;BME280;66072;50.238;19.228;2024-02-26T01:37:06;97559.23;;;-0.20;97.84
77118;BME280;66072;50.238;19.228;2024-02-26T01:39:34;97561.79;;;-0.21;97.84
77118;BME280;66072;50.238;19.228;2024-02-26T01:42:01;97556.77;;;-0.22;97.82
77118;BME280;66072;50.238;19.228;2024-02-26T01:44:29;97557.10;;;-0.22;98.11
77118;BME280;66072;50.238;19.228;2024-02-26T01:46:57;97558.64;;;-0.23;98.11
77118;BME280;66072;50.238;19.228;2024-02-26T01:49:25;97555.64;;;-0.24;97.95
77118;BME280;66072;50.238;19.228;2024-02-26T01:51:53;97553.67;;;-0.28;97.84
77118;BME280;66072;50.238;19.228;2024-02-26T01:54:21;97553.73;;;-0.31;97.99
77118;BME280;66072;50.238;19.228;2024-02-26T01:56:50;97560.54;;;-0.36;97.81
77118;BME280;66072;50.238;19.228;2024-02-26T01:59:18;97556.10;;;-0.41;97.66
77118;BME280;66072;50.238;19.228;2024-02-26T02:01:49;97559.02;;;-0.45;97.81
77118;BME280;66072;50.238;19.228;2024-02-26T02:04:19;97559.27;;;-0.48;98.11
77118;BME280;66072;50.238;19.228;2024-02-26T02:06:48;97560.66;;;-0.52;98.03
77118;BME280;66072;50.238;19.228;2024-02-26T02:09:16;97563.27;;;-0.57;97.91
77118;BME280;66072;50.238;19.228;2024-02-26T02:11:44;97562.33;;;-0.62;98.04
77118;BME280;66072;50.238;19.228;2024-02-26T02:14:12;97561.53;;;-0.65;98.24
77118;BME280;66072;50.238;19.228;2024-02-26T02:16:39;97565.79;;;-0.68;98.38
77118;BME280;66072;50.238;19.228;2024-02-26T02:19:07;97562.96;;;-0.70;98.45
77118;BME280;66072;50.238;19.228;2024-02-26T02:21:35;97564.70;;;-0.73;98.52
77118;BME280;66072;50.238;19.228;2024-02-26T02:24:03;97566.09;;;-0.76;98.44
77118;BME280;66072;50.238;19.228;2024-02-26T02:26:31;97565.16;;;-0.81;98.26
77118;BME280;66072;50.238;19.228;2024-02-26T02:28:59;97563.21;;;-0.85;98.23
77118;BME280;66072;50.238;19.228;2024-02-26T02:31:28;97560.27;;;-0.91;98.27
77118;BME280;66072;50.238;19.228;2024-02-26T02:33:56;97558.31;;;-0.94;98.41
77118;BME280;66072;50.238;19.228;2024-02-26T02:36:24;97560.22;;;-0.97;98.53
77118;BME280;66072;50.238;19.228;2024-02-26T02:38:52;97557.20;;;-0.99;98.83
77118;BME280;66072;50.238;19.228;2024-02-26T02:41:20;97553.23;;;-1.02;98.85
77118;BME280;66072;50.238;19.228;2024-02-26T02:43:47;97555.11;;;-1.05;98.93
77118;BME280;66072;50.238;19.228;2024-02-26T02:46:15;97552.45;;;-1.06;99.01
77118;BME280;66072;50.238;19.228;2024-02-26T02:48:43;97551.14;;;-1.08;99.20
77118;BME280;66072;50.238;19.228;2024-02-26T02:51:11;97558.54;;;-1.09;99.27
77118;BME280;66072;50.238;19.228;2024-02-26T02:53:39;97553.52;;;-1.09;99.48
77118;BME280;66072;50.238;19.228;2024-02-26T02:56:06;97560.56;;;-1.10;99.37
77118;BME280;66072;50.238;19.228;2024-02-26T02:58:34;97557.22;;;-1.11;99.55
77118;BME280;66072;50.238;19.228;2024-02-26T03:01:02;97553.86;;;-1.12;99.67
77118;BME280;66072;50.238;19.228;2024-02-26T03:03:30;97552.91;;;-1.14;99.63
77118;BME280;66072;50.238;19.228;2024-02-26T03:05:58;97548.23;;;-1.16;99.57
77118;BME280;66072;50.238;19.228;2024-02-26T03:08:26;97543.21;;;-1.17;99.72
77118;BME280;66072;50.238;19.228;2024-02-26T03:10:54;97540.36;;;-1.16;99.93
77118;BME280;66072;50.238;19.228;2024-02-26T03:13:21;97543.21;;;-1.16;99.96
77118;BME280;66072;50.238;19.228;2024-02-26T03:15:49;97538.52;;;-1.16;100.00
77118;BME280;66072;50.238;19.228;2024-02-26T03:18:17;97539.19;;;-1.16;100.00
77118;BME280;66072;50.238;19.228;2024-02-26T03:20:45;97537.15;;;-1.15;100.00
77118;BME280;66072;50.238;19.228;2024-02-26T03:23:13;97537.12;;;-1.13;100.00
77118;BME280;66072;50.238;19.228;2024-02-26T03:25:42;97540.80;;;-1.13;100.00
77118;BME280;66072;50.238;19.228;2024-02-26T03:28:10;97543.83;;;-1.13;100.00
77118;BME280;66072;50.238;19.228;2024-02-26T03:30:37;97541.32;;;-1.13;100.00
77118;BME280;66072;50.238;19.228;2024-02-26T03:33:05;97541.15;;;-1.13;100.00
77118;BME280;66072;50.238;19.228;2024-02-26T03:35:33;97537.14;;;-1.14;100.00
77118;BME280;66072;50.238;19.228;2024-02-26T03:38:01;97534.45;;;-1.14;100.00
77118;BME280;66072;50.238;19.228;2024-02-26T03:40:29;97534.08;;;-1.12;100.00
77118;BME280;66072;50.238;19.228;2024-02-26T03:42:57;97536.09;;;-1.12;100.00
77118;BME280;66072;50.238;19.228;2024-02-26T03:45:24;97530.20;;;-1.11;100.00
77118;BME280;66072;50.238;19.228;2024-02-26T03:47:52;97527.02;;;-1.12;100.00
77118;BME280;66072;50.238;19.228;2024-02-26T03:50:20;97527.73;;;-1.14;100.00
77118;BME280;66072;50.238;19.228;2024-02-26T03:52:48;97527.27;;;-1.16;100.00
77118;BME280;66072;50.238;19.228;2024-02-26T03:55:16;97527.11;;;-1.18;100.00
77118;BME280;66072;50.238;19.228;2024-02-26T03:57:44;97526.49;;;-1.20;100.00
77118;BME280;66072;50.238;19.228;2024-02-26T04:00:12;97521.15;;;-1.21;100.00
77118;BME280;66072;50.238;19.228;2024-02-26T04:02:40;97523.52;;;-1.24;100.00
77118;BME280;66072;50.238;19.228;2024-02-26T04:05:11;97521.08;;;-1.28;100.00
77118;BME280;66072;50.238;19.228;2024-02-26T04:07:42;97515.42;;;-1.32;100.00
77118;BME280;66072;50.238;19.228;2024-02-26T04:10:11;97512.45;;;-1.34;100.00
77118;BME280;66072;50.238;19.228;2024-02-26T04:12:39;97508.61;;;-1.36;100.00
77118;BME280;66072;50.238;19.228;2024-02-26T04:15:08;97511.19;;;-1.40;100.00
77118;BME280;66072;50.238;19.228;2024-02-26T04:17:37;97508.40;;;-1.45;100.00
77118;BME280;66072;50.238;19.228;2024-02-26T04:20:06;97507.45;;;-1.48;100.00
77118;BME280;66072;50.238;19.228;2024-02-26T04:22:34;97509.49;;;-1.51;100.00
77118;BME280;66072;50.238;19.228;2024-02-26T04:25:01;97505.01;;;-1.54;100.00
77118;BME280;66072;50.238;19.228;2024-02-26T04:27:30;97509.36;;;-1.54;100.00
77118;BME280;66072;50.238;19.228;2024-02-26T04:29:58;97505.85;;;-1.54;100.00
77118;BME280;66072;50.238;19.228;2024-02-26T04:32:26;97504.00;;;-1.54;100.00
77118;BME280;66072;50.238;19.228;2024-02-26T04:34:54;97501.66;;;-1.54;100.00
77118;BME280;66072;50.238;19.228;2024-02-26T04:37:21;97494.95;;;-1.54;100.00
77118;BME280;66072;50.238;19.228;2024-02-26T04:39:49;97491.45;;;-1.55;100.00
77118;BME280;66072;50.238;19.228;2024-02-26T04:42:17;97491.29;;;-1.56;100.00
77118;BME280;66072;50.238;19.228;2024-02-26T04:44:45;97491.48;;;-1.57;100.00
77118;BME280;66072;50.238;19.228;2024-02-26T04:47:13;97489.15;;;-1.58;100.00
77118;BME280;66072;50.238;19.228;2024-02-26T04:49:41;97490.17;;;-1.60;100.00
77118;BME280;66072;50.238;19.228;2024-02-26T04:52:09;97488.19;;;-1.63;100.00
77118;BME280;66072;50.238;19.228;2024-02-26T04:54:36;97484.52;;;-1.63;100.00
77118;BME280;66072;50.238;19.228;2024-02-26T04:57:04;97481.83;;;-1.63;100.00
77118;BME280;66072;50.238;19.228;2024-02-26T04:59:32;97476.48;;;-1.63;100.00
77118;BME280;66072;50.238;19.228;2024-02-26T05:02:00;97477.36;;;-1.67;100.00
77118;BME280;66072;50.238;19.228;2024-02-26T05:04:28;97481.73;;;-1.69;100.00
77118;BME280;66072;50.238;19.228;2024-02-26T05:06:56;97483.96;;;-1.71;100.00
77118;BME280;66072;50.238;19.228;2024-02-26T05:09:23;97481.66;;;-1.75;100.00
77118;BME280;66072;50.238;19.228;2024-02-26T05:11:51;97485.39;;;-1.78;100.00
77118;BME280;66072;50.238;19.228;2024-02-26T05:14:19;97485.73;;;-1.79;100.00
77118;BME280;66072;50.238;19.228;2024-02-26T05:16:47;97484.09;;;-1.81;100.00
77118;BME280;66072;50.238;19.228;2024-02-26T05:19:15;97486.47;;;-1.84;100.00
77118;BME280;66072;50.238;19.228;2024-02-26T05:21:43;97489.48;;;-1.84;100.00
77118;BME280;66072;50.238;19.228;2024-02-26T05:24:11;97486.48;;;-1.84;100.00
77118;BME280;66072;50.238;19.228;2024-02-26T05:26:39;97491.35;;;-1.85;100.00
77118;BME280;66072;50.238;19.228;2024-02-26T05:29:06;97491.70;;;-1.87;100.00
77118;BME280;66072;50.238;19.228;2024-02-26T05:31:34;97493.21;;;-1.86;100.00
77118;BME280;66072;50.238;19.228;2024-02-26T05:34:02;97494.36;;;-1.85;100.00
77118;BME280;66072;50.238;19.228;2024-02-26T05:36:30;97493.02;;;-1.83;100.00
77118;BME280;66072;50.238;19.228;2024-02-26T05:38:59;97497.70;;;-1.83;100.00
77118;BME280;66072;50.238;19.228;2024-02-26T05:41:28;97495.34;;;-1.83;100.00
77118;BME280;66072;50.238;19.228;2024-02-26T05:43:55;97500.52;;;-1.81;100.00
77118;BME280;66072;50.238;19.228;2024-02-26T05:46:23;97502.50;;;-1.80;100.00
77118;BME280;66072;50.238;19.228;2024-02-26T05:48:52;97505.67;;;-1.78;100.00
77118;BME280;66072;50.238;19.228;2024-02-26T05:51:20;97505.13;;;-1.75;100.00
77118;BME280;66072;50.238;19.228;2024-02-26T05:53:48;97506.77;;;-1.73;100.00
77118;BME280;66072;50.238;19.228;2024-02-26T05:56:16;97512.75;;;-1.68;100.00
77118;BME280;66072;50.238;19.228;2024-02-26T05:58:44;97514.69;;;-1.63;100.00
77118;BME280;66072;50.238;19.228;2024-02-26T06:01:12;97518.81;;;-1.57;100.00
77118;BME280;66072;50.238;19.228;2024-02-26T06:03:39;97517.58;;;-1.53;100.00
77118;BME280;66072;50.238;19.228;2024-02-26T06:06:07;97524.38;;;-1.47;100.00
77118;BME280;66072;50.238;19.228;2024-02-26T06:08:35;97526.63;;;-1.40;100.00
77118;BME280;66072;50.238;19.228;2024-02-26T06:11:06;97524.17;;;-1.33;100.00
77118;BME280;66072;50.238;19.228;2024-02-26T06:13:34;97522.71;;;-1.25;100.00
77118;BME280;66072;50.238;19.228;2024-02-26T06:16:02;97522.60;;;-1.18;100.00
77118;BME280;66072;50.238;19.228;2024-02-26T06:18:30;97525.00;;;-1.10;100.00
77118;BME280;66072;50.238;19.228;2024-02-26T06:20:58;97523.34;;;-1.00;100.00
77118;BME280;66072;50.238;19.228;2024-02-26T06:23:26;97530.88;;;-0.90;100.00
77118;BME280;66072;50.238;19.228;2024-02-26T06:25:54;97533.42;;;-0.80;100.00
77118;BME280;66072;50.238;19.228;2024-02-26T06:28:22;97531.58;;;-0.70;100.00
77118;BME280;66072;50.238;19.228;2024-02-26T06:30:50;97536.76;;;-0.59;100.00
77118;BME280;66072;50.238;19.228;2024-02-26T06:33:18;97536.92;;;-0.49;100.00
77118;BME280;66072;50.238;19.228;2024-02-26T06:35:46;97537.22;;;-0.37;100.00
77118;BME280;66072;50.238;19.228;2024-02-26T06:38:13;97539.02;;;-0.25;100.00
77118;BME280;66072;50.238;19.228;2024-02-26T06:40:41;97538.48;;;-0.15;100.00
77118;BME280;66072;50.238;19.228;2024-02-26T06:43:09;97540.27;;;-0.02;100.00
77118;BME280;66072;50.238;19.228;2024-02-26T06:45:37;97538.69;;;0.10;100.00
77118;BME280;66072;50.238;19.228;2024-02-26T06:48:05;97539.64;;;0.21;100.00
77118;BME280;66072;50.238;19.228;2024-02-26T06:50:33;97537.34;;;0.34;100.00
77118;BME280;66072;50.238;19.228;2024-02-26T06:53:01;97539.41;;;0.48;100.00
77118;BME280;66072;50.238;19.228;2024-02-26T06:55:28;97542.14;;;0.62;100.00
77118;BME280;66072;50.238;19.228;2024-02-26T06:57:58;97538.46;;;0.76;100.00
77118;BME280;66072;50.238;19.228;2024-02-26T07:00:25;97538.14;;;0.90;100.00
77118;BME280;66072;50.238;19.228;2024-02-26T07:02:53;97537.86;;;1.02;100.00
77118;BME280;66072;50.238;19.228;2024-02-26T07:05:21;97535.54;;;1.15;100.00
77118;BME280;66072;50.238;19.228;2024-02-26T07:07:49;97533.90;;;1.27;100.00
77118;BME280;66072;50.238;19.228;2024-02-26T07:10:16;97539.64;;;1.40;100.00
77118;BME280;66072;50.238;19.228;2024-02-26T07:12:44;97542.83;;;1.54;100.00
77118;BME280;66072;50.238;19.228;2024-02-26T07:15:12;97542.27;;;1.70;100.00
77118;BME280;66072;50.238;19.228;2024-02-26T07:17:40;97538.91;;;1.88;100.00
77118;BME280;66072;50.238;19.228;2024-02-26T07:20:08;97546.29;;;2.08;100.00
77118;BME280;66072;50.238;19.228;2024-02-26T07:22:37;97548.25;;;2.29;100.00
77118;BME280;66072;50.238;19.228;2024-02-26T07:25:05;97547.36;;;2.48;100.00
77118;BME280;66072;50.238;19.228;2024-02-26T07:27:33;97551.39;;;2.66;100.00
77118;BME280;66072;50.238;19.228;2024-02-26T07:30:01;97546.23;;;2.80;100.00
77118;BME280;66072;50.238;19.228;2024-02-26T07:32:29;97543.08;;;2.95;100.00
77118;BME280;66072;50.238;19.228;2024-02-26T07:34:57;97546.48;;;3.10;100.00
77118;BME280;66072;50.238;19.228;2024-02-26T07:37:24;97542.48;;;3.24;100.00
77118;BME280;66072;50.238;19.228;2024-02-26T07:39:52;97544.91;;;3.38;100.00
77118;BME280;66072;50.238;19.228;2024-02-26T07:42:20;97547.31;;;3.53;100.00
77118;BME280;66072;50.238;19.228;2024-02-26T07:44:48;97549.35;;;3.68;100.00
77118;BME280;66072;50.238;19.228;2024-02-26T07:47:16;97545.50;;;3.86;100.00
77118;BME280;66072;50.238;19.228;2024-02-26T07:49:43;97549.01;;;4.12;100.00
77118;BME280;66072;50.238;19.228;2024-02-26T07:52:11;97547.66;;;4.40;100.00
77118;BME280;66072;50.238;19.228;2024-02-26T07:54:39;97546.15;;;4.62;100.00
77118;BME280;66072;50.238;19.228;2024-02-26T07:57:06;97547.22;;;4.79;99.66
77118;BME280;66072;50.238;19.228;2024-02-26T07:59:34;97550.88;;;4.94;98.72
77118;BME280;66072;50.238;19.228;2024-02-26T08:02:02;97544.94;;;5.11;98.49
77118;BME280;66072;50.238;19.228;2024-02-26T08:04:30;97535.09;;;5.33;98.36
77118;BME280;66072;50.238;19.228;2024-02-26T08:06:58;97535.02;;;5.60;98.22
77118;BME280;66072;50.238;19.228;2024-02-26T08:09:26;97536.48;;;5.90;97.31
77118;BME280;66072;50.238;19.228;2024-02-26T08:11:54;97536.35;;;6.21;96.64
77118;BME280;66072;50.238;19.228;2024-02-26T08:14:22;97541.17;;;6.50;95.75
77118;BME280;66072;50.238;19.228;2024-02-26T08:16:49;97541.02;;;6.75;95.20
77118;BME280;66072;50.238;19.228;2024-02-26T08:19:17;97542.95;;;7.00;94.81
77118;BME280;66072;50.238;19.228;2024-02-26T08:21:45;97536.73;;;7.23;94.07
77118;BME280;66072;50.238;19.228;2024-02-26T08:24:13;97539.94;;;7.44;92.79
77118;BME280;66072;50.238;19.228;2024-02-26T08:26:40;97544.33;;;7.66;89.90
77118;BME280;66072;50.238;19.228;2024-02-26T08:29:08;97541.61;;;7.86;87.45
77118;BME280;66072;50.238;19.228;2024-02-26T08:31:36;97544.18;;;8.03;86.85
77118;BME280;66072;50.238;19.228;2024-02-26T08:34:04;97547.21;;;8.17;87.64
77118;BME280;66072;50.238;19.228;2024-02-26T08:36:33;97547.88;;;8.30;86.14
77118;BME280;66072;50.238;19.228;2024-02-26T08:39:02;97545.60;;;8.42;85.55
77118;BME280;66072;50.238;19.228;2024-02-26T08:41:29;97543.02;;;8.52;85.36
77118;BME280;66072;50.238;19.228;2024-02-26T08:43:57;97543.65;;;8.62;85.55
77118;BME280;66072;50.238;19.228;2024-02-26T08:46:25;97551.33;;;8.72;86.01
77118;BME280;66072;50.238;19.228;2024-02-26T08:48:53;97546.13;;;8.83;85.91
77118;BME280;66072;50.238;19.228;2024-02-26T08:51:21;97544.95;;;8.95;85.40
77118;BME280;66072;50.238;19.228;2024-02-26T08:53:48;97546.80;;;9.11;85.20
77118;BME280;66072;50.238;19.228;2024-02-26T08:56:16;97549.15;;;9.33;85.17
77118;BME280;66072;50.238;19.228;2024-02-26T08:58:45;97549.08;;;9.61;84.69
77118;BME280;66072;50.238;19.228;2024-02-26T09:01:14;97551.46;;;9.91;83.97
77118;BME280;66072;50.238;19.228;2024-02-26T09:03:42;97550.10;;;10.17;83.33
77118;BME280;66072;50.238;19.228;2024-02-26T09:06:10;97547.71;;;10.40;82.34
77118;BME280;66072;50.238;19.228;2024-02-26T09:08:37;97545.61;;;10.58;80.91
77118;BME280;66072;50.238;19.228;2024-02-26T09:11:05;97538.59;;;10.71;79.72
77118;BME280;66072;50.238;19.228;2024-02-26T09:13:33;97541.90;;;10.85;77.06
77118;BME280;66072;50.238;19.228;2024-02-26T09:16:01;97538.89;;;11.00;76.07
77118;BME280;66072;50.238;19.228;2024-02-26T09:18:28;97540.21;;;11.19;75.68
77118;BME280;66072;50.238;19.228;2024-02-26T09:20:57;97535.31;;;11.40;74.30
77118;BME280;66072;50.238;19.228;2024-02-26T09:23:24;97539.05;;;11.58;72.73
77118;BME280;66072;50.238;19.228;2024-02-26T09:25:52;97539.11;;;11.78;70.22
77118;BME280;66072;50.238;19.228;2024-02-26T09:28:20;97538.03;;;12.00;68.16
77118;BME280;66072;50.238;19.228;2024-02-26T09:30:48;97538.39;;;12.20;67.98
77118;BME280;66072;50.238;19.228;2024-02-26T09:33:15;97538.85;;;12.38;67.38
77118;BME280;66072;50.238;19.228;2024-02-26T09:35:43;97539.07;;;12.53;66.66
77118;BME280;66072;50.238;19.228;2024-02-26T09:38:11;97541.95;;;12.63;64.49
77118;BME280;66072;50.238;19.228;2024-02-26T09:40:39;97542.84;;;12.80;66.09
77118;BME280;66072;50.238;19.228;2024-02-26T09:43:10;97541.73;;;13.00;66.12
77118;BME280;66072;50.238;19.228;2024-02-26T09:45:42;97541.05;;;13.22;65.99
77118;BME280;66072;50.238;19.228;2024-02-26T09:48:10;97540.74;;;13.45;63.78
77118;BME280;66072;50.238;19.228;2024-02-26T09:50:43;97537.61;;;13.62;61.97
77118;BME280;66072;50.238;19.228;2024-02-26T09:53:12;97540.78;;;13.77;62.07
77118;BME280;66072;50.238;19.228;2024-02-26T09:55:40;97538.94;;;14.00;61.98
77118;BME280;66072;50.238;19.228;2024-02-26T09:58:17;97534.38;;;14.28;61.39
77118;BME280;66072;50.238;19.228;2024-02-26T10:00:50;97537.19;;;14.50;60.95
77118;BME280;66072;50.238;19.228;2024-02-26T10:03:21;97538.64;;;14.65;59.75
77118;BME280;66072;50.238;19.228;2024-02-26T10:05:50;97544.12;;;14.71;58.51
77118;BME280;66072;50.238;19.228;2024-02-26T10:08:18;97544.26;;;14.72;56.90
77118;BME280;66072;50.238;19.228;2024-02-26T10:10:46;97540.05;;;14.77;57.25
77118;BME280;66072;50.238;19.228;2024-02-26T10:13:14;97536.34;;;15.01;58.01
77118;BME280;66072;50.238;19.228;2024-02-26T10:15:41;97536.27;;;15.38;58.37
77118;BME280;66072;50.238;19.228;2024-02-26T10:18:09;97535.13;;;15.83;55.86
77118;BME280;66072;50.238;19.228;2024-02-26T10:20:37;97529.67;;;16.24;55.94
77118;BME280;66072;50.238;19.228;2024-02-26T10:23:05;97533.36;;;16.45;54.52
77118;BME280;66072;50.238;19.228;2024-02-26T10:25:33;97533.73;;;16.68;53.97
77118;BME280;66072;50.238;19.228;2024-02-26T10:28:02;97534.65;;;16.91;53.15
77118;BME280;66072;50.238;19.228;2024-02-26T10:30:30;97533.48;;;16.95;51.87
77118;BME280;66072;50.238;19.228;2024-02-26T10:32:58;97531.77;;;16.88;52.94
77118;BME280;66072;50.238;19.228;2024-02-26T10:35:26;97532.20;;;16.91;52.34
77118;BME280;66072;50.238;19.228;2024-02-26T10:37:54;97527.23;;;16.99;51.84
77118;BME280;66072;50.238;19.228;2024-02-26T10:40:26;97526.64;;;17.02;51.66
77118;BME280;66072;50.238;19.228;2024-02-26T10:42:59;97526.80;;;17.03;52.68
77118;BME280;66072;50.238;19.228;2024-02-26T10:45:27;97525.98;;;17.11;52.02
77118;BME280;66072;50.238;19.228;2024-02-26T10:47:55;97519.98;;;17.08;50.98
77118;BME280;66072;50.238;19.228;2024-02-26T10:50:23;97524.21;;;16.90;50.55
77118;BME280;66072;50.238;19.228;2024-02-26T10:52:52;97528.30;;;16.79;50.49
77118;BME280;66072;50.238;19.228;2024-02-26T10:55:23;97526.02;;;16.75;50.71
77118;BME280;66072;50.238;19.228;2024-02-26T10:57:52;97521.92;;;16.73;50.56
77118;BME280;66072;50.238;19.228;2024-02-26T11:00:20;97525.38;;;16.72;51.39
77118;BME280;66072;50.238;19.228;2024-02-26T11:02:48;97525.91;;;16.68;51.59
77118;BME280;66072;50.238;19.228;2024-02-26T11:05:17;97524.14;;;16.64;52.37
77118;BME280;66072;50.238;19.228;2024-02-26T11:07:45;97526.52;;;16.59;52.39
77118;BME280;66072;50.238;19.228;2024-02-26T11:10:13;97520.82;;;16.53;52.02
77118;BME280;66072;50.238;19.228;2024-02-26T11:12:41;97518.51;;;16.30;50.60
77118;BME280;66072;50.238;19.228;2024-02-26T11:15:10;97515.61;;;16.08;52.13
77118;BME280;66072;50.238;19.228;2024-02-26T11:17:39;97513.31;;;16.01;52.80
77118;BME280;66072;50.238;19.228;2024-02-26T11:20:09;97512.09;;;15.95;52.42
77118;BME280;66072;50.238;19.228;2024-02-26T11:22:38;97510.23;;;15.86;52.35
77118;BME280;66072;50.238;19.228;2024-02-26T11:25:06;97515.21;;;15.68;53.50
77118;BME280;66072;50.238;19.228;2024-02-26T11:27:39;97514.09;;;15.54;54.19
77118;BME280;66072;50.238;19.228;2024-02-26T11:30:10;97509.23;;;15.42;54.91
77118;BME280;66072;50.238;19.228;2024-02-26T11:32:38;97508.11;;;15.30;55.33
77118;BME280;66072;50.238;19.228;2024-02-26T11:35:06;97504.80;;;15.20;55.35
77118;BME280;66072;50.238;19.228;2024-02-26T11:37:35;97509.66;;;15.11;55.13
77118;BME280;66072;50.238;19.228;2024-02-26T11:40:14;97508.29;;;15.06;55.14
77118;BME280;66072;50.238;19.228;2024-02-26T11:42:44;97508.98;;;14.98;55.44
77118;BME280;66072;50.238;19.228;2024-02-26T11:48:14;97513.70;;;14.86;55.02
77118;BME280;66072;50.238;19.228;2024-02-26T11:50:47;97510.23;;;14.99;55.47
77118;BME280;66072;50.238;19.228;2024-02-26T11:53:26;97505.37;;;15.38;54.95
77118;BME280;66072;50.238;19.228;2024-02-26T11:58:47;97507.54;;;16.19;51.95
77118;BME280;66072;50.238;19.228;2024-02-26T12:04:12;97509.65;;;16.24;51.57
77118;BME280;66072;50.238;19.228;2024-02-26T12:06:42;97511.34;;;16.33;51.60
77118;BME280;66072;50.238;19.228;2024-02-26T12:09:11;97511.81;;;16.31;50.60
77118;BME280;66072;50.238;19.228;2024-02-26T12:11:40;97508.81;;;16.22;51.38
77118;BME280;66072;50.238;19.228;2024-02-26T12:14:09;97506.63;;;16.15;51.71
77118;BME280;66072;50.238;19.228;2024-02-26T12:16:38;97502.68;;;16.17;52.60
77118;BME280;66072;50.238;19.228;2024-02-26T12:19:08;97503.58;;;16.22;52.30
77118;BME280;66072;50.238;19.228;2024-02-26T12:21:37;97499.92;;;16.25;52.41
77118;BME280;66072;50.238;19.228;2024-02-26T12:24:23;97498.28;;;16.22;52.22
77118;BME280;66072;50.238;19.228;2024-02-26T12:26:51;97495.80;;;16.06;51.51
77118;BME280;66072;50.238;19.228;2024-02-26T12:29:20;97493.27;;;15.93;51.78
77118;BME280;66072;50.238;19.228;2024-02-26T12:31:48;97492.45;;;15.87;52.25
77118;BME280;66072;50.238;19.228;2024-02-26T12:34:16;97492.45;;;15.82;52.53
77118;BME280;66072;50.238;19.228;2024-02-26T12:36:44;97496.03;;;15.93;52.98
77118;BME280;66072;50.238;19.228;2024-02-26T12:39:12;97497.58;;;16.07;53.07
77118;BME280;66072;50.238;19.228;2024-02-26T12:41:40;97498.77;;;16.16;52.48
77118;BME280;66072;50.238;19.228;2024-02-26T12:44:08;97500.85;;;16.14;52.22
77118;BME280;66072;50.238;19.228;2024-02-26T12:46:35;97502.59;;;16.03;52.56
77118;BME280;66072;50.238;19.228;2024-02-26T12:49:03;97502.46;;;15.93;52.22
77118;BME280;66072;50.238;19.228;2024-02-26T12:51:31;97501.38;;;15.79;51.71
77118;BME280;66072;50.238;19.228;2024-02-26T12:54:01;97499.16;;;15.66;52.12
77118;BME280;66072;50.238;19.228;2024-02-26T12:56:30;97497.93;;;15.60;53.16
77118;BME280;66072;50.238;19.228;2024-02-26T12:58:58;97499.33;;;15.55;53.32
77118;BME280;66072;50.238;19.228;2024-02-26T13:01:27;97498.59;;;15.49;53.29